createdAt,value
2018-07-30T00:00:10.209Z,101073.30
2018-07-30T00:02:45.638Z,101070.20
2018-07-30T00:05:15.215Z,101071.50
2018-07-30T00:07:44.493Z,101064.45
2018-07-30T00:10:13.855Z,101059.70
2018-07-30T00:12:43.165Z,101060.50
2018-07-30T00:15:12.686Z,101057.29
2018-07-30T00:17:42.178Z,101063.30
2018-07-30T00:20:11.554Z,101058.14
2018-07-30T00:22:40.981Z,101053.10
2018-07-30T00:25:11.002Z,101055.48
2018-07-30T00:27:40.421Z,101049.76
2018-07-30T00:30:09.937Z,101056.10
2018-07-30T00:32:39.273Z,101051.86
2018-07-30T00:35:09.017Z,101052.14
2018-07-30T00:37:38.401Z,101056.03
2018-07-30T00:40:11.682Z,101050.72
2018-07-30T00:42:41.098Z,101051.12
2018-07-30T00:45:10.496Z,101047.98
2018-07-30T00:47:40.065Z,101041.59
2018-07-30T00:50:09.509Z,101045.70
2018-07-30T00:52:38.792Z,101046.08
2018-07-30T00:55:08.217Z,101042.28
2018-07-30T00:57:38.207Z,101036.49
2018-07-30T01:00:08.749Z,101040.58
2018-07-30T01:02:39.054Z,101049.72
2018-07-30T01:05:08.521Z,101043.66
2018-07-30T01:07:37.972Z,101048.03
2018-07-30T01:10:07.562Z,101046.68
2018-07-30T01:12:36.905Z,101045.77
2018-07-30T01:15:06.685Z,101045.30
2018-07-30T01:17:35.856Z,101050.31
2018-07-30T01:20:05.229Z,101047.44
2018-07-30T01:22:34.905Z,101053.25
2018-07-30T01:25:04.351Z,101052.81
2018-07-30T01:27:33.756Z,101053.59
2018-07-30T01:30:03.218Z,101055.66
2018-07-30T01:32:33.312Z,101052.70
2018-07-30T01:35:02.705Z,101053.48
2018-07-30T01:37:32.089Z,101058.11
2018-07-30T01:40:01.482Z,101059.33
2018-07-30T01:42:30.845Z,101060.59
2018-07-30T01:45:00.133Z,101056.80
2018-07-30T01:47:29.477Z,101064.37
2018-07-30T01:49:58.839Z,101056.58
2018-07-30T01:52:28.218Z,101068.73
2018-07-30T01:54:57.658Z,101067.59
2018-07-30T01:57:26.995Z,101065.86
2018-07-30T01:59:56.410Z,101058.55
2018-07-30T02:02:25.790Z,101065.81
2018-07-30T02:04:55.231Z,101067.05
2018-07-30T02:07:24.664Z,101066.16
2018-07-30T02:09:54.330Z,101058.27
2018-07-30T02:12:23.979Z,101059.48
2018-07-30T02:14:53.390Z,101073.93
2018-07-30T02:17:22.812Z,101076.89
2018-07-30T02:19:52.292Z,101073.04
2018-07-30T02:22:21.731Z,101068.03
2018-07-30T02:24:51.329Z,101070.16
2018-07-30T02:27:20.416Z,101068.95
2018-07-30T02:29:50.043Z,101068.46
2018-07-30T02:32:19.474Z,101068.05
2018-07-30T02:34:48.920Z,101077.00
2018-07-30T02:37:18.387Z,101075.30
2018-07-30T02:39:47.822Z,101076.08
2018-07-30T02:42:17.482Z,101073.11
2018-07-30T02:44:46.674Z,101074.14
2018-07-30T02:47:16.358Z,101078.31
2018-07-30T02:49:45.718Z,101076.67
2018-07-30T02:52:15.106Z,101081.17
2018-07-30T02:54:44.558Z,101083.47
2018-07-30T02:57:13.956Z,101084.06
2018-07-30T02:59:43.331Z,101084.70
2018-07-30T03:02:12.719Z,101079.13
2018-07-30T03:04:42.070Z,101089.86
2018-07-30T03:07:11.454Z,101086.08
2018-07-30T03:09:40.813Z,101080.72
2018-07-30T03:12:10.233Z,101090.61
2018-07-30T03:14:39.551Z,101086.00
2018-07-30T03:17:08.906Z,101081.45
2018-07-30T03:19:38.300Z,101087.07
2018-07-30T03:22:07.770Z,101088.78
2018-07-30T03:24:37.122Z,101092.66
2018-07-30T03:27:07.125Z,101083.38
2018-07-30T03:29:36.649Z,101082.44
2018-07-30T03:32:06.005Z,101088.69
2018-07-30T03:34:35.401Z,101079.47
2018-07-30T03:37:04.791Z,101079.40
2018-07-30T03:39:34.149Z,101082.58
2018-07-30T03:42:03.549Z,101083.70
2018-07-30T03:44:32.917Z,101081.00
2018-07-30T03:47:02.281Z,101075.06
2018-07-30T03:49:31.637Z,101078.09
2018-07-30T03:52:00.983Z,101075.91
2018-07-30T03:54:30.325Z,101082.09
2018-07-30T03:56:59.754Z,101079.80
2018-07-30T03:59:29.177Z,101076.83
2018-07-30T04:01:58.674Z,101079.36
2018-07-30T04:04:28.046Z,101075.73
2018-07-30T04:06:57.691Z,101078.44
2018-07-30T04:09:27.022Z,101077.47
2018-07-30T04:11:56.342Z,101078.97
2018-07-30T04:14:25.812Z,101083.69
2018-07-30T04:16:55.133Z,101085.84
2018-07-30T04:19:24.593Z,101091.93
2018-07-30T04:21:56.102Z,101088.02
2018-07-30T04:24:25.424Z,101089.30
2018-07-30T04:26:54.873Z,101087.23
2018-07-30T04:29:24.787Z,101087.48
2018-07-30T04:31:54.157Z,101085.66
2018-07-30T04:34:23.489Z,101088.38
2018-07-30T04:36:53.592Z,101080.72
2018-07-30T04:39:23.517Z,101087.58
2018-07-30T04:41:53.053Z,101082.59
2018-07-30T04:44:22.497Z,101086.64
2018-07-30T04:46:51.889Z,101091.27
2018-07-30T04:49:21.314Z,101092.11
2018-07-30T04:51:50.782Z,101095.88
2018-07-30T04:54:20.226Z,101091.80
2018-07-30T04:56:49.677Z,101092.61
2018-07-30T04:59:19.133Z,101092.51
2018-07-30T05:01:48.582Z,101097.75
2018-07-30T05:04:17.960Z,101101.22
2018-07-30T05:06:47.350Z,101103.89
2018-07-30T05:09:16.766Z,101109.64
2018-07-30T05:11:46.177Z,101110.63
2018-07-30T05:14:15.586Z,101106.61
2018-07-30T05:16:44.973Z,101107.87
2018-07-30T05:19:14.457Z,101115.00
2018-07-30T05:21:43.915Z,101119.26
2018-07-30T05:24:13.297Z,101114.51
2018-07-30T05:26:42.846Z,101109.50
2018-07-30T05:29:12.018Z,101106.78
2018-07-30T05:31:41.503Z,101106.92
2018-07-30T05:34:11.053Z,101121.34
2018-07-30T05:36:40.390Z,101116.35
2018-07-30T05:39:11.283Z,101121.58
2018-07-30T05:41:40.985Z,101128.62
2018-07-30T05:44:10.525Z,101126.25
2018-07-30T05:46:40.681Z,101136.72
2018-07-30T05:49:10.134Z,101125.13
2018-07-30T05:51:39.486Z,101128.27
2018-07-30T05:54:08.902Z,101126.00
2018-07-30T05:56:38.296Z,101127.48
2018-07-30T05:59:07.763Z,101130.86
2018-07-30T06:01:37.223Z,101131.03
2018-07-30T06:04:06.674Z,101130.03
2018-07-30T06:06:36.022Z,101133.34
2018-07-30T06:09:07.829Z,101137.17
2018-07-30T06:11:37.638Z,101140.92
2018-07-30T06:14:07.062Z,101152.97
2018-07-30T06:16:36.510Z,101158.08
2018-07-30T06:19:05.882Z,101161.70
2018-07-30T06:21:35.263Z,101165.45
2018-07-30T06:24:04.762Z,101170.09
2018-07-30T06:26:34.155Z,101172.95
2018-07-30T06:29:03.661Z,101167.29
2018-07-30T06:31:33.052Z,101176.53
2018-07-30T06:34:02.582Z,101169.14
2018-07-30T06:36:31.962Z,101164.80
2018-07-30T06:39:01.323Z,101181.31
2018-07-30T06:41:30.783Z,101180.11
2018-07-30T06:44:00.160Z,101175.50
2018-07-30T06:46:29.565Z,101182.84
2018-07-30T06:48:59.666Z,101180.05
2018-07-30T06:51:29.051Z,101178.95
2018-07-30T06:53:58.523Z,101182.13
2018-07-30T06:56:27.894Z,101184.01
2018-07-30T06:58:57.309Z,101184.71
2018-07-30T07:01:26.721Z,101197.06
2018-07-30T07:03:56.136Z,101196.72
2018-07-30T07:06:25.499Z,101200.28
2018-07-30T07:08:54.866Z,101203.14
2018-07-30T07:11:24.346Z,101205.30
2018-07-30T07:13:53.758Z,101202.95
2018-07-30T07:16:23.152Z,101210.03
2018-07-30T07:18:52.534Z,101206.09
2018-07-30T07:21:21.908Z,101198.20
2018-07-30T07:23:51.379Z,101192.70
2018-07-30T07:26:20.865Z,101196.97
2018-07-30T07:28:50.233Z,101202.99
2018-07-30T07:31:19.673Z,101207.77
2018-07-30T07:33:49.062Z,101209.42
2018-07-30T07:36:18.605Z,101209.59
2018-07-30T07:38:47.939Z,101213.67
2018-07-30T07:41:17.315Z,101211.70
2018-07-30T07:43:47.218Z,101208.44
2018-07-30T07:46:16.617Z,101220.39
2018-07-30T07:48:46.343Z,101225.07
2018-07-30T07:51:15.799Z,101227.13
2018-07-30T07:53:45.072Z,101233.52
2018-07-30T07:56:14.423Z,101237.70
2018-07-30T07:58:43.774Z,101239.16
2018-07-30T08:01:13.376Z,101240.91
2018-07-30T08:03:42.769Z,101243.67
2018-07-30T08:06:11.890Z,101243.41
2018-07-30T08:08:41.524Z,101242.66
2018-07-30T08:11:11.186Z,101254.80
2018-07-30T08:13:40.555Z,101259.70
2018-07-30T08:16:09.962Z,101252.63
2018-07-30T08:18:39.367Z,101239.02
2018-07-30T08:21:08.931Z,101248.31
2018-07-30T08:23:38.603Z,101247.58
2018-07-30T08:26:08.026Z,101252.98
2018-07-30T08:28:37.126Z,101254.60
2018-07-30T08:31:06.781Z,101249.94
2018-07-30T08:33:36.129Z,101259.53
2018-07-30T08:36:05.515Z,101262.17
2018-07-30T08:38:34.991Z,101263.16
2018-07-30T08:41:04.386Z,101259.41
2018-07-30T08:43:33.818Z,101262.48
2018-07-30T08:46:03.222Z,101263.24
2018-07-30T08:48:32.558Z,101261.48
2018-07-30T08:51:01.933Z,101263.31
2018-07-30T08:53:31.543Z,101266.59
2018-07-30T08:56:01.039Z,101263.41
2018-07-30T08:58:30.417Z,101264.34
2018-07-30T09:00:59.862Z,101254.69
2018-07-30T09:03:29.588Z,101258.92
2018-07-30T09:05:58.954Z,101262.22
2018-07-30T09:08:28.345Z,101266.35
2018-07-30T09:10:57.795Z,101265.29
2018-07-30T09:13:27.298Z,101260.55
2018-07-30T09:15:58.045Z,101257.55
2018-07-30T09:18:27.227Z,101257.44
2018-07-30T09:20:56.625Z,101262.08
2018-07-30T09:23:26.245Z,101270.54
2018-07-30T09:25:55.749Z,101270.30
2018-07-30T09:28:25.102Z,101274.66
2018-07-30T09:30:54.450Z,101276.55
2018-07-30T09:33:23.931Z,101277.47
2018-07-30T09:35:53.490Z,101287.02
2018-07-30T09:38:23.613Z,101279.20
2018-07-30T09:40:53.003Z,101287.17
2018-07-30T09:43:22.805Z,101289.77
2018-07-30T09:45:52.253Z,101290.31
2018-07-30T09:48:21.678Z,101289.38
2018-07-30T09:50:51.217Z,101288.66
2018-07-30T09:53:21.106Z,101290.59
2018-07-30T09:55:50.455Z,101291.05
2018-07-30T09:58:20.168Z,101292.94
2018-07-30T10:00:54.533Z,101296.08
2018-07-30T10:03:24.191Z,101294.87
2018-07-30T10:05:53.613Z,101295.42
2018-07-30T10:08:23.079Z,101292.50
2018-07-30T10:10:53.362Z,101298.34
2018-07-30T10:13:22.825Z,101294.07
2018-07-30T10:15:52.450Z,101302.16
2018-07-30T10:18:22.335Z,101304.26
2018-07-30T10:20:51.752Z,101302.44
2018-07-30T10:23:21.250Z,101303.53
2018-07-30T10:25:50.610Z,101303.90
2018-07-30T10:28:19.990Z,101306.19
2018-07-30T10:30:49.524Z,101294.55
2018-07-30T10:33:19.458Z,101298.05
2018-07-30T10:35:48.985Z,101292.27
2018-07-30T10:38:18.545Z,101292.55
2018-07-30T10:40:47.776Z,101288.88
2018-07-30T10:43:17.182Z,101298.89
2018-07-30T10:45:46.405Z,101288.80
2018-07-30T10:48:15.778Z,101295.30
2018-07-30T10:50:45.666Z,101288.69
2018-07-30T10:53:15.102Z,101296.27
2018-07-30T10:55:44.522Z,101284.95
2018-07-30T10:58:13.941Z,101286.02
2018-07-30T11:00:43.436Z,101282.42
2018-07-30T11:03:13.069Z,101287.25
2018-07-30T11:05:42.272Z,101282.25
2018-07-30T11:08:11.786Z,101283.74
2018-07-30T11:10:41.172Z,101280.28
2018-07-30T11:13:10.887Z,101283.12
2018-07-30T11:15:40.880Z,101277.57
2018-07-30T11:18:10.304Z,101278.50
2018-07-30T11:20:39.684Z,101276.66
2018-07-30T11:23:09.069Z,101280.89
2018-07-30T11:25:38.414Z,101281.14
2018-07-30T11:28:07.805Z,101274.60
2018-07-30T11:30:37.214Z,101280.09
2018-07-30T11:33:06.622Z,101278.09
2018-07-30T11:35:36.329Z,101275.80
2018-07-30T11:38:06.308Z,101275.31
2018-07-30T11:40:35.744Z,101273.91
2018-07-30T11:43:05.139Z,101276.02
2018-07-30T11:45:34.481Z,101271.27
2018-07-30T11:48:03.986Z,101267.86
2018-07-30T11:50:33.278Z,101268.50
2018-07-30T11:53:02.733Z,101264.45
2018-07-30T11:55:32.177Z,101262.20
2018-07-30T11:58:01.550Z,101264.88
2018-07-30T12:00:30.963Z,101262.66
2018-07-30T12:03:00.115Z,101264.22
2018-07-30T12:05:29.480Z,101269.20
2018-07-30T12:07:58.840Z,101266.93
2018-07-30T12:10:28.281Z,101268.38
2018-07-30T12:12:57.683Z,101265.09
2018-07-30T12:15:27.021Z,101263.47
2018-07-30T12:17:56.446Z,101265.70
2018-07-30T12:20:25.792Z,101259.41
2018-07-30T12:22:55.223Z,101261.58
2018-07-30T12:25:24.622Z,101260.33
2018-07-30T12:27:54.255Z,101256.87
2018-07-30T12:30:23.759Z,101255.09
2018-07-30T12:32:53.112Z,101257.31
2018-07-30T12:35:22.745Z,101259.70
2018-07-30T12:37:52.214Z,101254.60
2018-07-30T12:40:21.658Z,101261.52
2018-07-30T12:42:51.153Z,101257.19
2018-07-30T12:45:24.603Z,101253.31
2018-07-30T12:47:53.985Z,101257.65
2018-07-30T12:50:23.583Z,101246.23
2018-07-30T12:52:52.959Z,101249.50
2018-07-30T12:55:22.689Z,101250.23
2018-07-30T12:57:52.781Z,101250.98
2018-07-30T13:00:22.253Z,101247.37
2018-07-30T13:02:51.764Z,101246.23
2018-07-30T13:05:21.080Z,101243.13
2018-07-30T13:07:50.846Z,101240.22
2018-07-30T13:10:20.298Z,101243.87
2018-07-30T13:19:36.917Z,101226.16
2018-07-30T13:22:06.306Z,101226.63
2018-07-30T13:24:35.656Z,101226.48
2018-07-30T13:27:05.042Z,101225.97
2018-07-30T13:29:34.537Z,101223.94
2018-07-30T13:32:03.999Z,101220.04
2018-07-30T13:34:33.469Z,101224.53
2018-07-30T13:37:02.823Z,101219.25
2018-07-30T13:39:32.350Z,101218.55
2018-07-30T13:42:01.982Z,101222.48
2018-07-30T13:44:31.333Z,101214.62
2018-07-30T13:47:00.711Z,101207.19
2018-07-30T13:49:30.120Z,101210.72
2018-07-30T13:51:59.534Z,101205.39
2018-07-30T13:54:29.040Z,101201.25
2018-07-30T13:56:58.594Z,101203.14
2018-07-30T13:59:28.218Z,101197.97
2018-07-30T14:01:57.654Z,101196.66
2018-07-30T14:04:27.041Z,101192.30
2018-07-30T14:06:56.584Z,101182.34
2018-07-30T14:09:25.995Z,101191.45
2018-07-30T14:11:55.375Z,101181.25
2018-07-30T14:14:24.833Z,101183.66
2018-07-30T14:16:54.185Z,101178.34
2018-07-30T14:19:23.929Z,101178.50
2018-07-30T14:21:53.290Z,101171.63
2018-07-30T14:24:22.701Z,101174.84
2018-07-30T14:26:52.149Z,101173.08
2018-07-30T14:29:21.563Z,101170.77
2018-07-30T14:31:51.452Z,101165.46
2018-07-30T14:34:20.854Z,101165.75
2018-07-30T14:36:50.244Z,101161.88
2018-07-30T14:39:19.661Z,101161.94
2018-07-30T14:41:49.128Z,101167.08
2018-07-30T14:44:18.522Z,101152.34
2018-07-30T14:46:48.347Z,101149.71
2018-07-30T14:49:17.907Z,101154.58
2018-07-30T14:51:47.114Z,101154.94
2018-07-30T14:54:16.570Z,101153.57
2018-07-30T14:56:46.041Z,101155.41
2018-07-30T14:59:15.501Z,101148.98
2018-07-30T15:01:45.558Z,101145.00
2018-07-30T15:04:15.021Z,101141.81
2018-07-30T15:06:44.406Z,101143.26
2018-07-30T15:09:14.466Z,101143.00
2018-07-30T15:11:44.098Z,101137.24
2018-07-30T15:14:13.426Z,101139.00
2018-07-30T15:16:42.888Z,101143.16
2018-07-30T15:19:12.278Z,101140.45
2018-07-30T15:21:41.629Z,101134.47
2018-07-30T15:24:10.966Z,101142.45
2018-07-30T15:26:40.520Z,101140.97
2018-07-30T15:29:09.988Z,101146.69
2018-07-30T15:31:39.375Z,101147.33
2018-07-30T15:34:08.933Z,101150.77
2018-07-30T15:36:38.437Z,101157.84
2018-07-30T15:39:11.904Z,101157.24
2018-07-30T15:41:41.733Z,101147.39
2018-07-30T15:44:11.210Z,101152.05
2018-07-30T15:46:40.595Z,101156.61
2018-07-30T15:49:10.768Z,101153.14
2018-07-30T15:51:40.114Z,101150.62
2018-07-30T15:54:09.651Z,101152.73
2018-07-30T15:56:39.073Z,101147.61
2018-07-30T15:59:08.452Z,101148.16
2018-07-30T16:01:37.846Z,101147.48
2018-07-30T16:04:07.314Z,101142.85
2018-07-30T16:06:36.886Z,101129.39
2018-07-30T16:09:08.425Z,101132.16
2018-07-30T16:11:38.158Z,101126.95
2018-07-30T16:14:07.519Z,101126.17
2018-07-30T16:16:37.186Z,101119.30
2018-07-30T16:19:06.418Z,101112.33
2018-07-30T16:21:35.893Z,101119.19
2018-07-30T16:24:05.392Z,101110.48
2018-07-30T16:26:34.830Z,101108.37
2018-07-30T16:29:05.234Z,101116.83
2018-07-30T16:31:35.176Z,101114.48
2018-07-30T16:34:04.952Z,101108.63
2018-07-30T16:36:34.306Z,101113.73
2018-07-30T16:39:04.038Z,101110.39
2018-07-30T16:41:33.696Z,101107.67
2018-07-30T16:44:03.078Z,101103.29
2018-07-30T16:46:32.885Z,101096.74
2018-07-30T16:49:02.275Z,101100.84
2018-07-30T16:51:31.697Z,101102.16
2018-07-30T16:54:01.123Z,101101.49
2018-07-30T16:56:30.578Z,101109.39
2018-07-30T16:59:00.334Z,101116.84
2018-07-30T17:01:29.900Z,101112.31
2018-07-30T17:03:59.319Z,101120.31
2018-07-30T17:06:28.805Z,101126.36
2018-07-30T17:08:58.174Z,101125.38
2018-07-30T17:11:28.585Z,101123.42
2018-07-30T17:13:58.045Z,101124.16
2018-07-30T17:16:27.478Z,101126.13
2018-07-30T17:18:57.104Z,101128.56
2018-07-30T17:21:26.430Z,101125.28
2018-07-30T17:23:55.860Z,101120.87
2018-07-30T17:26:25.314Z,101129.20
2018-07-30T17:28:54.489Z,101120.03
2018-07-30T17:31:23.990Z,101120.03
2018-07-30T17:33:53.420Z,101123.41
2018-07-30T17:36:22.599Z,101123.94
2018-07-30T17:38:52.043Z,101125.91
2018-07-30T17:41:21.420Z,101134.08
2018-07-30T17:43:50.882Z,101136.86
2018-07-30T17:46:20.349Z,101140.05
2018-07-30T17:48:49.725Z,101141.80
2018-07-30T17:51:19.458Z,101136.18
2018-07-30T17:53:48.959Z,101140.64
2018-07-30T17:56:18.335Z,101140.70
2018-07-30T17:58:47.760Z,101139.17
2018-07-30T18:01:17.097Z,101141.67
2018-07-30T18:03:46.430Z,101137.91
2018-07-30T18:06:15.902Z,101146.02
2018-07-30T18:08:45.223Z,101141.70
2018-07-30T18:11:14.605Z,101138.66
2018-07-30T18:13:44.156Z,101144.48
2018-07-30T18:16:13.574Z,101136.82
2018-07-30T18:18:42.926Z,101135.63
2018-07-30T18:21:12.386Z,101144.23
2018-07-30T18:23:41.819Z,101142.45
2018-07-30T18:26:11.166Z,101139.32
2018-07-30T18:28:40.570Z,101145.52
2018-07-30T18:31:10.000Z,101144.91
2018-07-30T18:33:39.574Z,101148.28
2018-07-30T18:36:09.017Z,101145.86
2018-07-30T18:38:38.393Z,101155.62
2018-07-30T18:41:07.870Z,101148.06
2018-07-30T18:43:37.290Z,101151.36
2018-07-30T18:46:06.671Z,101153.80
2018-07-30T18:48:36.352Z,101154.22
2018-07-30T18:51:05.722Z,101154.73
2018-07-30T18:53:35.329Z,101156.17
2018-07-30T18:56:05.078Z,101155.52
2018-07-30T18:58:34.493Z,101159.00
2018-07-30T19:01:03.993Z,101164.38
2018-07-30T19:03:33.174Z,101164.31
2018-07-30T19:06:02.603Z,101168.25
2018-07-30T19:08:31.965Z,101170.60
2018-07-30T19:11:01.376Z,101173.83
2018-07-30T19:13:30.769Z,101182.10
2018-07-30T19:16:00.203Z,101181.12
2018-07-30T19:18:29.558Z,101189.65
2018-07-30T19:20:59.001Z,101189.95
2018-07-30T19:23:28.415Z,101188.55
2018-07-30T19:25:57.835Z,101192.00
2018-07-30T19:28:26.877Z,101194.20
2018-07-30T19:30:56.246Z,101191.06
2018-07-30T19:33:25.645Z,101192.31
2018-07-30T19:35:55.060Z,101193.77
2018-07-30T19:38:24.417Z,101193.48
2018-07-30T19:40:54.169Z,101194.25
2018-07-30T19:43:23.533Z,101195.98
2018-07-30T19:45:52.874Z,101199.34
2018-07-30T19:48:22.401Z,101200.61
2018-07-30T19:50:51.757Z,101193.95
2018-07-30T19:53:21.255Z,101197.76
2018-07-30T19:55:50.762Z,101198.11
2018-07-30T19:58:20.555Z,101201.89
2018-07-30T20:00:49.999Z,101207.41
2018-07-30T20:03:19.498Z,101206.41
2018-07-30T20:05:49.059Z,101212.64
2018-07-30T20:08:18.701Z,101212.13
2018-07-30T20:10:48.135Z,101207.29
2018-07-30T20:13:17.578Z,101213.28
2018-07-30T20:15:47.070Z,101210.84
2018-07-30T20:18:16.509Z,101212.20
2018-07-30T20:20:46.044Z,101209.64
2018-07-30T20:23:15.521Z,101213.58
2018-07-30T20:25:45.536Z,101214.09
2018-07-30T20:28:15.106Z,101220.02
2018-07-30T20:30:45.786Z,101210.77
2018-07-30T20:33:15.129Z,101221.58
2018-07-30T20:35:44.566Z,101220.81
2018-07-30T20:38:14.111Z,101213.17
2018-07-30T20:40:43.885Z,101215.05
2018-07-30T20:43:13.237Z,101212.21
2018-07-30T20:45:42.708Z,101217.17
2018-07-30T20:48:12.373Z,101218.34
2018-07-30T20:50:41.823Z,101218.80
2018-07-30T20:53:11.157Z,101215.30
2018-07-30T20:55:41.578Z,101215.44
2018-07-30T20:58:11.082Z,101215.75
2018-07-30T21:00:40.537Z,101216.06
2018-07-30T21:03:09.951Z,101217.72
2018-07-30T21:05:44.233Z,101220.26
2018-07-30T21:08:14.973Z,101229.83
2018-07-30T21:10:45.890Z,101223.22
2018-07-30T21:13:16.444Z,101221.84
2018-07-30T21:15:45.992Z,101223.22
2018-07-30T21:18:15.356Z,101223.59
2018-07-30T21:20:44.847Z,101221.04
2018-07-30T21:23:14.241Z,101224.07
2018-07-30T21:25:43.693Z,101226.00
2018-07-30T21:28:13.574Z,101220.73
2018-07-30T21:30:43.094Z,101222.70
2018-07-30T21:33:12.478Z,101220.89
2018-07-30T21:35:42.145Z,101217.59
2018-07-30T21:38:11.301Z,101212.33
2018-07-30T21:40:40.830Z,101223.00
2018-07-30T21:43:10.209Z,101219.70
2018-07-30T21:45:39.577Z,101222.11
2018-07-30T21:48:08.993Z,101219.01
2018-07-30T21:50:38.491Z,101222.78
2018-07-30T21:53:08.442Z,101219.45
2018-07-30T21:55:38.265Z,101217.55
2018-07-30T21:58:07.649Z,101220.94
2018-07-30T22:00:37.059Z,101221.38
2018-07-30T22:03:06.814Z,101232.94
2018-07-30T22:05:36.824Z,101218.92
2018-07-30T22:08:06.610Z,101229.32
2018-07-30T22:10:36.123Z,101226.27
2018-07-30T22:13:05.624Z,101223.00
2018-07-30T22:15:34.787Z,101223.63
2018-07-30T22:18:04.191Z,101223.87
2018-07-30T22:20:33.674Z,101226.76
2018-07-30T22:23:03.103Z,101231.76
2018-07-30T22:25:32.486Z,101231.73
2018-07-30T22:28:02.235Z,101227.38
2018-07-30T22:30:32.361Z,101229.13
2018-07-30T22:33:01.854Z,101226.51
2018-07-30T22:35:31.587Z,101224.23
2018-07-30T22:38:00.650Z,101224.93
2018-07-30T22:40:30.089Z,101226.13
2018-07-30T22:42:59.546Z,101223.74
2018-07-30T22:45:28.988Z,101227.61
2018-07-30T22:47:58.335Z,101225.35
2018-07-30T22:50:27.754Z,101224.05
2018-07-30T22:52:57.557Z,101229.24
2018-07-30T22:55:26.969Z,101230.66
2018-07-30T22:57:56.491Z,101228.62
2018-07-30T23:00:25.917Z,101229.69
2018-07-30T23:02:55.494Z,101225.44
2018-07-30T23:05:24.606Z,101229.57
2018-07-30T23:07:53.977Z,101222.66
2018-07-30T23:10:23.367Z,101223.27
2018-07-30T23:12:52.815Z,101226.39
2018-07-30T23:15:22.366Z,101223.09
2018-07-30T23:17:51.761Z,101231.58
2018-07-30T23:20:21.318Z,101227.46
2018-07-30T23:22:50.763Z,101230.58
2018-07-30T23:25:20.138Z,101227.81
2018-07-30T23:27:49.469Z,101225.31
2018-07-30T23:30:18.914Z,101214.39
2018-07-30T23:32:48.367Z,101219.58
2018-07-30T23:35:17.757Z,101214.39
2018-07-30T23:37:47.082Z,101214.99
2018-07-30T23:40:16.725Z,101206.78
2018-07-30T23:42:46.161Z,101211.45
2018-07-30T23:45:15.534Z,101208.91
2018-07-30T23:47:45.853Z,101219.73
2018-07-30T23:50:15.305Z,101220.55
2018-07-30T23:52:44.721Z,101217.73
2018-07-30T23:57:42.474Z,101221.06
